Time;durP1;ratioP1;P1;durP2;ratioP2;P2;SDS_P1;SDS_P2;PMS_P1;PMS_P2;Temp;Humidity;BMP_temperature;BMP_pressure;BME280_temperature;BME280_humidity;BME280_pressure;Samples;Min_cycle;Max_cycle;Signal;HPM_P1;HPM_P2
2022/06/11 00:00:05;;;;;;;2.88;2.05;;;;;;;17.96;100.00;101094.38;6261520;28;20041;-89
2022/06/11 00:03:07;;;;;;;3.13;1.88;;;;;;;17.93;100.00;101103.38;6245911;28;20050;-89
2022/06/11 00:06:10;;;;;;;4.45;2.33;;;;;;;17.91;100.00;101096.66;6252595;28;20052;-89
2022/06/11 00:09:13;;;;;;;3.80;2.00;;;;;;;17.90;100.00;101100.25;6243545;28;20044;-89
2022/06/11 00:12:16;;;;;;;3.60;1.85;;;;;;;17.88;100.00;101095.16;6239658;28;20071;-89
2022/06/11 00:15:18;;;;;;;4.60;2.25;;;;;;;17.89;100.00;101098.59;6252739;28;20495;-89
2022/06/11 00:18:22;;;;;;;3.00;2.00;;;;;;;17.89;100.00;101093.38;6235350;28;20563;-89
2022/06/11 00:21:27;;;;;;;4.55;2.10;;;;;;;17.88;100.00;101095.16;6248219;28;20055;-89
2022/06/11 00:24:29;;;;;;;3.15;1.80;;;;;;;17.84;100.00;101086.81;6241301;28;20033;-89
2022/06/11 00:27:31;;;;;;;2.90;1.88;;;;;;;17.85;100.00;101090.25;6239001;28;20037;-89
2022/06/11 00:30:34;;;;;;;6.18;2.10;;;;;;;17.85;100.00;101082.38;6237268;28;20034;-89
2022/06/11 00:33:37;;;;;;;6.28;2.10;;;;;;;17.83;100.00;101074.69;6252182;28;20441;-89
2022/06/11 00:36:43;;;;;;;8.68;2.50;;;;;;;17.84;100.00;101084.19;6234125;28;20052;-89
2022/06/11 00:39:45;;;;;;;4.90;1.90;;;;;;;17.85;100.00;101080.59;6247244;28;20135;-89
2022/06/11 00:42:47;;;;;;;5.95;1.85;;;;;;;17.84;100.00;101078.97;6239621;28;20052;-89
2022/06/11 00:46:36;;;;;;;3.67;1.70;;;;;;;17.83;100.00;101076.47;6239908;28;20498;-89
2022/06/11 00:49:56;;;;;;;3.63;1.92;;;;;;;17.84;100.00;101072.91;6227850;28;20123;-89
2022/06/11 00:52:59;;;;;;;4.85;2.03;;;;;;;17.82;100.00;101075.66;6227781;28;20514;-89
2022/06/11 00:56:05;;;;;;;3.45;1.98;;;;;;;17.82;100.00;101072.22;6229491;28;20050;-89
2022/06/11 00:59:13;;;;;;;3.55;1.90;;;;;;;17.80;100.00;101072.38;6218373;28;20119;-89
2022/06/11 01:02:16;;;;;;;6.78;2.03;;;;;;;17.76;100.00;101064.94;6240111;28;20049;-89
2022/06/11 01:05:23;;;;;;;5.43;2.28;;;;;;;17.74;100.00;101072.97;6250523;28;20060;-89
2022/06/11 01:08:57;;;;;;;4.55;2.15;;;;;;;17.73;100.00;101073.94;6227801;28;20120;-89
2022/06/11 01:12:31;;;;;;;5.97;2.25;;;;;;;17.74;100.00;101072.13;6226504;28;20045;-90
2022/06/11 01:15:52;;;;;;;3.75;2.47;;;;;;;17.71;100.00;101075.88;6223032;28;20038;-90
2022/06/11 01:19:03;;;;;;;4.93;2.10;;;;;;;17.68;100.00;101078.81;6236585;28;20045;-89
2022/06/11 01:22:08;;;;;;;3.05;2.15;;;;;;;17.67;100.00;101074.56;6237390;28;20053;-89
2022/06/11 01:25:55;;;;;;;3.45;2.20;;;;;;;17.64;100.00;101067.84;6242805;28;20418;-89
2022/06/11 01:29:18;;;;;;;3.45;2.08;;;;;;;17.63;100.00;101068.78;6180540;28;20531;-89
2022/06/11 01:32:20;;;;;;;4.50;2.15;;;;;;;17.62;100.00;101063.72;6201560;28;20107;-89
2022/06/11 01:35:47;;;;;;;4.80;2.05;;;;;;;17.63;100.00;101067.97;6174702;28;20046;-89
2022/06/11 01:39:12;;;;;;;5.03;2.60;;;;;;;17.63;100.00;101058.31;6199751;28;20062;-89
2022/06/11 01:42:39;;;;;;;3.97;2.10;;;;;;;17.60;100.00;101056.03;6199872;28;20118;-89
2022/06/11 01:45:41;;;;;;;4.13;2.13;;;;;;;17.59;100.00;101053.56;6191077;28;20145;-89
2022/06/11 01:48:57;;;;;;;4.57;2.13;;;;;;;17.58;100.00;101057.16;6190596;28;20133;-89
2022/06/11 01:52:34;;;;;;;3.80;2.03;;;;;;;17.54;100.00;101045.34;6191048;28;20054;-90
2022/06/11 01:55:59;;;;;;;4.53;2.10;;;;;;;17.53;100.00;101046.31;6186906;28;20489;-89
2022/06/11 01:59:12;;;;;;;3.88;2.22;;;;;;;17.51;100.00;101043.03;6179643;28;20076;-89
2022/06/11 02:02:51;;;;;;;3.17;2.25;;;;;;;17.49;100.00;101048.44;6182252;28;20046;-89
2022/06/11 02:06:21;;;;;;;3.75;2.10;;;;;;;17.49;100.00;101045.81;6204167;28;20052;-89
2022/06/11 02:09:34;;;;;;;3.07;2.30;;;;;;;17.51;100.00;101043.03;6221666;28;20041;-89
2022/06/11 02:12:51;;;;;;;3.70;2.10;;;;;;;17.51;100.00;101040.41;6223239;28;20058;-89
2022/06/11 02:16:00;;;;;;;2.88;2.22;;;;;;;17.49;100.00;101037.13;6228845;28;20041;-89
2022/06/11 02:19:08;;;;;;;3.92;2.20;;;;;;;17.48;100.00;101036.31;6235378;28;20037;-89
2022/06/11 02:22:23;;;;;;;4.05;2.15;;;;;;;17.47;100.00;101039.91;6224236;28;20065;-89
2022/06/11 02:25:34;;;;;;;3.80;2.30;;;;;;;17.46;100.00;101038.25;6241172;28;20785;-89
2022/06/11 02:28:40;;;;;;;4.78;2.42;;;;;;;17.45;100.00;101039.25;6231495;28;20088;-89
2022/06/11 02:31:47;;;;;;;6.07;2.25;;;;;;;17.46;100.00;101032.19;6236471;28;20815;-89
2022/06/11 02:34:55;;;;;;;3.65;2.20;;;;;;;17.43;100.00;101036.75;6231010;28;20071;-89
2022/06/11 02:37:57;;;;;;;3.78;2.10;;;;;;;17.41;100.00;101033.47;6256709;28;20611;-89
2022/06/11 02:41:05;;;;;;;5.03;2.45;;;;;;;17.41;100.00;101035.28;6243201;28;20045;-89
2022/06/11 02:44:07;;;;;;;5.72;2.50;;;;;;;17.38;100.00;101039.03;6252692;28;20081;-89
2022/06/11 02:47:11;;;;;;;4.47;2.60;;;;;;;17.35;100.00;101038.53;6231808;28;20046;-89
2022/06/11 02:50:19;;;;;;;5.20;2.25;;;;;;;17.32;100.00;101037.03;6227640;28;20030;-89
2022/06/11 02:53:21;;;;;;;4.90;2.17;;;;;;;17.31;100.00;101032.75;6238751;28;20561;-88
2022/06/11 02:56:23;;;;;;;3.33;1.73;;;;;;;17.29;100.00;101033.88;6227962;28;20041;-88
2022/06/11 02:59:26;;;;;;;3.08;2.10;;;;;;;17.30;100.00;101036.34;6227675;28;20040;-89
2022/06/11 03:02:28;;;;;;;4.95;2.10;;;;;;;17.32;100.00;101037.03;6241450;28;20040;-88
2022/06/11 03:05:33;;;;;;;2.67;1.92;;;;;;;17.32;100.00;101036.22;6228007;28;20042;-89
2022/06/11 03:08:35;;;;;;;3.65;1.95;;;;;;;17.35;100.00;101031.47;6221732;28;20384;-89
2022/06/11 03:11:39;;;;;;;5.78;1.70;;;;;;;17.38;100.00;101031.16;6241664;28;20048;-88
2022/06/11 03:14:42;;;;;;;3.78;1.98;;;;;;;17.57;100.00;101037.19;6247336;28;20056;-89
2022/06/11 03:17:46;;;;;;;7.65;1.90;;;;;;;17.68;100.00;101036.91;6250654;28;20073;-89
2022/06/11 03:20:50;;;;;;;3.13;2.00;;;;;;;17.73;100.00;101042.50;6239582;28;20391;-89
2022/06/11 03:23:52;;;;;;;5.38;1.75;;;;;;;17.76;100.00;101049.22;6246208;28;20052;-89
2022/06/11 03:26:55;;;;;;;4.38;1.90;;;;;;;17.80;100.00;101046.19;6224843;28;20045;-89
2022/06/11 03:29:57;;;;;;;4.55;2.28;;;;;;;17.83;100.00;101043.25;6231155;28;20046;-89
2022/06/11 03:32:59;;;;;;;3.40;1.80;;;;;;;17.84;100.00;101046.72;6241121;28;20126;-89
2022/06/11 03:36:04;;;;;;;4.05;2.10;;;;;;;17.86;100.00;101048.19;6243483;28;20153;-88
2022/06/11 03:39:08;;;;;;;6.05;2.40;;;;;;;17.90;100.00;101053.13;6269151;28;20316;-89
2022/06/11 03:42:11;;;;;;;3.58;1.77;;;;;;;17.95;100.00;101048.22;6229530;28;20405;-89
2022/06/11 03:45:13;;;;;;;2.72;1.60;;;;;;;17.98;100.00;101047.91;6224277;28;20131;-89
2022/06/11 03:48:15;;;;;;;7.78;2.00;;;;;;;18.04;100.00;101063.00;6225159;28;20521;-89
2022/06/11 03:51:18;;;;;;;2.45;1.80;;;;;;;18.03;100.00;101061.34;6239284;28;20041;-87
2022/06/11 03:54:20;;;;;;;6.30;1.70;;;;;;;18.05;100.00;101060.22;6220297;28;20046;-89
2022/06/11 03:57:23;;;;;;;4.32;2.03;;;;;;;18.09;100.00;101068.59;6227788;28;20077;-89
2022/06/11 04:03:55;;;;;;;3.85;1.80;;;;;;;18.20;100.00;101068.31;6253361;28;20044;-89
2022/06/11 04:06:59;;;;;;;4.22;2.03;;;;;;;18.42;99.62;101080.03;6263831;28;20110;-89
2022/06/11 04:10:03;;;;;;;5.07;1.90;;;;;;;18.43;100.00;101073.81;6264167;28;20048;-89
2022/06/11 04:13:07;;;;;;;3.35;1.98;;;;;;;18.64;96.24;101078.63;6262064;28;20573;-89
2022/06/11 04:16:19;;;;;;;3.60;1.90;;;;;;;18.72;95.99;101089.13;6253630;28;20045;-89
2022/06/11 04:19:29;;;;;;;3.65;1.83;;;;;;;18.68;97.65;101085.19;6259110;28;20438;-89
2022/06/11 04:22:32;;;;;;;3.45;2.00;;;;;;;18.72;97.23;101090.94;6251387;28;20036;-89
2022/06/11 04:25:34;;;;;;;4.40;2.00;;;;;;;18.70;98.49;101091.06;6230022;28;20057;-90
2022/06/11 04:28:36;;;;;;;3.10;2.05;;;;;;;18.81;96.87;101095.25;6239890;28;20042;-90
2022/06/11 04:31:38;;;;;;;4.45;1.95;;;;;;;18.87;97.24;101085.91;6236960;28;20055;-89
2022/06/11 04:34:45;;;;;;;3.83;1.80;;;;;;;18.86;97.85;101086.91;6227986;28;20494;-89
2022/06/11 04:37:47;;;;;;;3.55;1.77;;;;;;;18.87;97.86;101093.78;6233999;28;20053;-89
2022/06/11 04:40:49;;;;;;;3.90;1.90;;;;;;;18.87;98.93;101094.59;6230598;28;20653;-89
2022/06/11 04:43:51;;;;;;;4.50;2.00;;;;;;;18.90;99.79;101096.06;6216258;28;20042;-90
2022/06/11 04:46:54;;;;;;;3.35;2.08;;;;;;;18.93;100.00;101093.09;6229650;28;20694;-89
2022/06/11 04:49:59;;;;;;;5.10;2.10;;;;;;;18.94;100.00;101084.28;6257450;28;20045;-89
2022/06/11 04:53:02;;;;;;;3.58;1.80;;;;;;;18.98;100.00;101095.25;6252838;28;20095;-89
2022/06/11 04:56:04;;;;;;;4.68;2.70;;;;;;;19.03;100.00;101099.06;6231229;28;20137;-89
2022/06/11 04:59:06;;;;;;;4.80;2.05;;;;;;;19.08;100.00;101109.88;6264327;28;20044;-89
2022/06/11 05:02:12;;;;;;;3.35;1.90;;;;;;;19.18;100.00;101108.88;6251386;28;20046;-89
2022/06/11 05:05:15;;;;;;;5.78;2.15;;;;;;;19.26;100.00;101106.28;6216450;28;20052;-89
2022/06/11 05:08:23;;;;;;;4.78;2.00;;;;;;;19.34;100.00;101108.91;6216751;28;20062;-89
2022/06/11 05:11:25;;;;;;;4.35;1.90;;;;;;;19.43;100.00;101109.69;6239297;28;20056;-89
2022/06/11 05:14:27;;;;;;;4.05;1.80;;;;;;;19.49;100.00;101109.88;6231167;28;20801;-89
2022/06/11 05:17:29;;;;;;;4.15;2.10;;;;;;;19.60;100.00;101113.97;6216980;28;20634;-89
2022/06/11 05:20:31;;;;;;;7.05;1.98;;;;;;;19.70;100.00;101125.16;6244229;28;20121;-89
2022/06/11 05:23:33;;;;;;;4.20;1.70;;;;;;;19.79;100.00;101112.81;6226487;28;20091;-89
2022/06/11 05:26:42;;;;;;;8.25;2.40;;;;;;;19.90;100.00;101119.53;6239839;28;20048;-90
2022/06/11 05:29:53;;;;;;;5.00;1.98;;;;;;;19.98;100.00;101120.34;6253956;28;20037;-90
2022/06/11 05:32:54;;;;;;;;;;;;;;;20.13;99.71;101124.91;6256288;28;20060;-89
2022/06/11 05:35:56;;;;;;;4.47;2.08;;;;;;;20.34;92.96;101127.78;6261664;28;19925;-89
2022/06/11 05:38:58;;;;;;;4.57;2.70;;;;;;;20.19;94.15;101138.19;6251448;28;20049;-89
2022/06/11 05:42:00;;;;;;;4.43;2.22;;;;;;;19.92;96.94;101135.94;6219687;28;20167;-89
2022/06/11 05:45:02;;;;;;;5.68;2.50;;;;;;;19.90;96.39;101144.03;6223482;28;20044;-89
2022/06/11 05:48:06;;;;;;;3.80;2.30;;;;;;;19.87;96.37;101139.06;6258008;28;20038;-89
2022/06/11 05:51:13;;;;;;;4.32;2.42;;;;;;;19.91;95.89;101148.28;6239420;28;20057;-89
2022/06/11 05:54:25;;;;;;;6.07;2.38;;;;;;;19.93;96.65;101137.59;6260884;28;20033;-89
2022/06/11 05:57:28;;;;;;;4.55;2.40;;;;;;;19.95;96.47;101138.22;6226138;28;20065;-89
2022/06/11 06:00:30;;;;;;;5.35;2.90;;;;;;;19.80;97.29;101138.13;6231781;28;20041;-89
2022/06/11 06:03:31;;;;;;;4.57;2.65;;;;;;;19.62;98.02;101140.06;6248526;28;20060;-89
2022/06/11 06:06:34;;;;;;;6.93;2.70;;;;;;;19.45;99.07;101140.09;6260974;28;20052;-89
2022/06/11 06:09:37;;;;;;;4.72;2.53;;;;;;;19.36;100.00;101141.06;6243013;28;20076;-89
2022/06/11 06:12:39;;;;;;;6.65;2.85;;;;;;;19.34;100.00;101146.47;6242881;28;20131;-89
2022/06/11 06:15:41;;;;;;;7.05;3.15;;;;;;;19.41;100.00;101151.91;6244927;28;20491;-89
2022/06/11 06:18:44;;;;;;;5.18;2.95;;;;;;;19.40;100.00;101154.69;6255778;28;20044;-90
2022/06/11 06:21:47;;;;;;;7.72;3.45;;;;;;;19.42;100.00;101156.16;6247022;28;20049;-90
2022/06/11 06:24:49;;;;;;;7.03;3.72;;;;;;;19.44;100.00;101158.63;6247054;28;20064;-90
2022/06/11 06:27:50;;;;;;;5.28;4.05;;;;;;;19.68;100.00;101157.84;6244338;28;20120;-89
2022/06/11 06:30:53;;;;;;;7.95;4.10;;;;;;;19.90;100.00;101166.81;6246661;28;20414;-89
2022/06/11 06:34:00;;;;;;;11.65;5.93;;;;;;;20.25;98.46;101173.50;6248291;28;20510;-89
2022/06/11 06:37:03;;;;;;;11.27;6.38;;;;;;;20.74;95.80;101175.16;6257381;28;20060;-89
2022/06/11 06:40:06;;;;;;;11.35;6.43;;;;;;;20.98;93.50;101182.09;6248808;28;20048;-91
2022/06/11 06:43:08;;;;;;;6.78;5.28;;;;;;;20.96;92.79;101186.72;6256235;28;20523;-90
2022/06/11 06:46:12;;;;;;;6.80;4.85;;;;;;;20.95;93.40;101185.91;6215678;28;20207;-89
2022/06/11 06:49:13;;;;;;;11.60;4.43;;;;;;;21.01;92.40;101187.00;6257284;28;20399;-89
2022/06/11 06:52:15;;;;;;;7.30;4.40;;;;;;;21.21;90.29;101190.81;6237571;28;20053;-89
2022/06/11 06:55:17;;;;;;;7.40;3.60;;;;;;;21.21;89.18;101198.72;6256520;28;20040;-89
2022/06/11 06:58:19;;;;;;;5.53;3.50;;;;;;;20.95;87.58;101183.25;6238149;28;20052;-88
2022/06/11 07:01:21;;;;;;;6.60;2.90;;;;;;;20.67;90.67;101185.56;6252897;28;20037;-89
2022/06/11 07:04:23;;;;;;;5.95;3.47;;;;;;;20.35;91.79;101192.53;6257588;28;20032;-89
2022/06/11 07:07:26;;;;;;;4.93;2.50;;;;;;;20.21;90.53;101180.09;6245543;28;20431;-88
2022/06/11 07:10:29;;;;;;;2.50;2.08;;;;;;;20.14;90.92;101187.00;6258347;28;20062;-88
2022/06/11 07:13:32;;;;;;;5.90;2.50;;;;;;;20.18;89.20;101177.78;6240891;28;20052;-89
2022/06/11 07:16:44;;;;;;;5.65;2.20;;;;;;;20.25;88.44;101191.91;6250607;28;20037;-88
2022/06/11 07:19:52;;;;;;;2.65;2.00;;;;;;;20.34;87.76;101200.59;6265105;28;20036;-88
2022/06/11 07:23:07;;;;;;;2.47;1.88;;;;;;;20.33;86.83;101181.38;6252510;28;20414;-89
2022/06/11 07:26:19;;;;;;;3.55;1.77;;;;;;;20.38;86.01;101184.31;6247714;28;20175;-89
2022/06/11 07:29:25;;;;;;;4.03;1.90;;;;;;;20.41;83.28;101188.41;6257967;28;20044;-90
2022/06/11 07:32:35;;;;;;;3.22;1.63;;;;;;;20.35;84.92;101192.53;6253963;28;20045;-89
2022/06/11 07:35:37;;;;;;;5.95;1.85;;;;;;;20.41;83.90;101180.50;6261146;28;20088;-88
2022/06/11 07:38:39;;;;;;;2.80;1.42;;;;;;;20.53;81.28;101188.88;6243123;28;20050;-89
2022/06/11 07:41:42;;;;;;;2.38;1.75;;;;;;;20.62;83.14;101183.44;6234313;28;20041;-89
2022/06/11 07:44:45;;;;;;;4.43;1.55;;;;;;;20.65;81.46;101182.28;6241126;28;20038;-88
2022/06/11 07:47:56;;;;;;;5.35;1.58;;;;;;;20.65;83.83;101185.72;6253492;28;20045;-88
2022/06/11 07:50:58;;;;;;;4.85;1.80;;;;;;;20.72;81.87;101187.66;6242827;28;20451;-87
2022/06/11 07:54:02;;;;;;;1.95;1.27;;;;;;;20.83;82.50;101192.53;6241021;28;20098;-89
2022/06/11 07:57:04;;;;;;;1.48;1.25;;;;;;;20.96;77.60;101184.91;6219068;28;20052;-89
2022/06/11 08:00:14;;;;;;;2.45;1.52;;;;;;;20.99;78.16;101189.84;6238061;28;20045;-88
2022/06/11 08:03:18;;;;;;;4.47;1.40;;;;;;;21.01;78.11;101187.81;6221169;28;20042;-89
2022/06/11 08:06:20;;;;;;;2.13;1.00;;;;;;;21.01;76.39;101187.00;6232959;28;20344;-89
2022/06/11 08:09:22;;;;;;;2.55;1.27;;;;;;;21.07;77.60;101191.59;6231013;28;20050;-89
2022/06/11 08:12:26;;;;;;;0.88;0.88;;;;;;;21.10;79.48;101196.50;6248914;28;20211;-89
2022/06/11 08:15:27;;;;;;;2.08;1.33;;;;;;;21.17;78.38;101194.00;6221447;28;20132;-89
2022/06/11 08:18:31;;;;;;;3.33;1.20;;;;;;;21.19;76.79;101198.09;6230166;28;20049;-89
2022/06/11 08:21:33;;;;;;;2.38;1.20;;;;;;;21.21;77.23;101195.28;6229446;28;20050;-88
2022/06/11 08:24:35;;;;;;;1.23;1.00;;;;;;;21.17;75.87;101189.56;6241515;28;20037;-88
2022/06/11 08:27:37;;;;;;;1.70;1.00;;;;;;;21.20;74.55;101189.19;6221609;28;20216;-88
2022/06/11 08:30:40;;;;;;;2.17;1.00;;;;;;;21.31;75.42;101193.22;6247101;28;20443;-88
2022/06/11 08:33:42;;;;;;;1.80;1.00;;;;;;;21.33;73.93;101191.25;6243137;28;20053;-88
2022/06/11 08:36:44;;;;;;;2.00;1.20;;;;;;;21.31;73.40;101193.22;6234744;28;20052;-88
2022/06/11 08:39:46;;;;;;;1.58;1.10;;;;;;;21.18;73.13;101193.81;6240476;28;20048;-89
2022/06/11 08:43:13;;;;;;;1.10;1.00;;;;;;;21.19;74.02;101187.56;6218143;28;20092;-88
2022/06/11 08:46:18;;;;;;;2.42;0.90;;;;;;;21.33;76.45;101185.16;6222201;28;20693;-88
2022/06/11 08:49:38;;;;;;;2.33;1.30;;;;;;;21.63;72.59;101194.03;6228243;28;20042;-91
2022/06/11 08:52:40;;;;;;;;;;;;;;;21.73;71.19;101192.75;6235834;28;20052;-89
2022/06/11 08:55:42;;;;;;;2.03;1.20;;;;;;;21.87;nan;101188.53;6217109;28;19969;-89
2022/06/11 08:59:07;;;;;;;2.55;1.20;;;;;;;22.27;72.29;101186.50;6228609;28;20045;-89
2022/06/11 09:02:47;;;;;;;1.38;1.05;;;;;;;22.46;70.09;101193.06;6244721;28;20059;-89
2022/06/11 09:05:57;;;;;;;2.15;1.00;;;;;;;22.42;68.12;101186.50;6259703;28;20512;-88
2022/06/11 09:09:30;;;;;;;3.25;1.02;;;;;;;22.53;68.48;101187.84;6252257;28;20128;-88
2022/06/11 09:12:49;;;;;;;2.55;1.00;;;;;;;22.43;66.41;101195.22;6255521;28;20090;-89
2022/06/11 09:16:27;;;;;;;4.10;0.90;;;;;;;22.32;65.47;101196.53;6249713;28;20565;-89
2022/06/11 09:20:00;;;;;;;1.38;0.82;;;;;;;22.39;64.25;101192.16;6246870;28;20051;-88
2022/06/11 09:23:08;;;;;;;1.40;0.75;;;;;;;22.54;62.47;101202.69;6260419;28;20044;-89
2022/06/11 09:26:23;;;;;;;1.00;0.90;;;;;;;22.77;61.37;101195.47;6228703;28;20228;-88
2022/06/11 09:29:57;;;;;;;4.03;1.17;;;;;;;22.87;59.49;101200.44;6238441;28;20049;-88
2022/06/11 09:33:06;;;;;;;2.15;1.20;;;;;;;23.12;58.64;101193.03;6178948;28;20093;-88
2022/06/11 09:36:17;;;;;;;1.50;0.70;;;;;;;23.55;58.89;101200.13;6151792;28;20058;-89
2022/06/11 09:39:40;;;;;;;1.05;0.82;;;;;;;23.89;56.63;101206.56;6175973;28;20058;-90
2022/06/11 09:42:45;;;;;;;1.23;0.85;;;;;;;24.06;55.72;101197.31;6174275;28;20563;-89
2022/06/11 09:45:55;;;;;;;1.00;0.82;;;;;;;24.28;56.06;101204.16;6176203;28;20080;-88
2022/06/11 09:49:18;;;;;;;1.90;0.90;;;;;;;24.66;53.58;101201.09;6196816;28;20038;-88
2022/06/11 09:52:41;;;;;;;1.98;0.80;;;;;;;24.57;55.50;101201.47;6163929;28;20050;-88
2022/06/11 09:55:47;;;;;;;1.15;0.88;;;;;;;24.53;54.59;101195.78;6174720;28;20086;-88
2022/06/11 09:59:20;;;;;;;0.70;0.68;;;;;;;24.66;54.68;101200.31;6163943;28;20083;-89
2022/06/11 10:06:16;;;;;;;3.42;1.38;;;;;;;25.10;50.50;101197.19;6194907;28;20057;-89
2022/06/11 10:09:23;;;;;;;2.67;1.17;;;;;;;25.13;50.01;101211.84;6206809;28;20050;-89
2022/06/11 10:12:56;;;;;;;1.83;0.90;;;;;;;24.93;51.72;101217.09;6238563;28;20042;-89
2022/06/11 10:16:06;;;;;;;0.85;0.82;;;;;;;24.66;52.58;101202.94;6249498;28;20050;-89
2022/06/11 10:19:30;;;;;;;2.60;0.90;;;;;;;24.71;53.40;101201.34;6243269;28;20050;-89
2022/06/11 10:22:42;;;;;;;1.58;0.88;;;;;;;24.79;52.49;101207.47;6247790;28;20029;-89
2022/06/11 10:25:57;;;;;;;1.42;0.80;;;;;;;24.69;52.81;101208.69;6244460;28;20056;-88
2022/06/11 10:29:14;;;;;;;1.15;0.90;;;;;;;24.84;54.02;101220.94;6248206;28;20529;-89
2022/06/11 10:32:27;;;;;;;2.00;0.90;;;;;;;24.74;53.05;101201.97;6252621;28;20045;-89
2022/06/11 10:35:50;;;;;;;0.82;0.80;;;;;;;24.69;53.22;101208.69;6260094;28;20762;-89
2022/06/11 10:39:23;;;;;;;1.98;0.90;;;;;;;24.37;54.39;101199.53;6246699;28;20427;-89
2022/06/11 10:42:54;;;;;;;2.58;1.08;;;;;;;24.51;57.63;101192.50;6216981;28;20096;-89
2022/06/11 10:45:57;;;;;;;1.50;0.90;;;;;;;24.97;53.30;101210.41;6232532;28;20041;-89
2022/06/11 10:48:59;;;;;;;1.55;0.80;;;;;;;25.28;52.79;101199.28;6233285;28;20056;-90
2022/06/11 10:52:09;;;;;;;3.60;1.10;;;;;;;25.47;50.11;101212.75;6238838;28;20052;-90
2022/06/11 10:55:17;;;;;;;1.48;1.08;;;;;;;25.84;48.28;101207.84;6244610;28;20055;-90
2022/06/11 10:58:53;;;;;;;1.75;0.90;;;;;;;26.10;49.63;101191.13;6261113;28;20056;-90
2022/06/11 11:02:02;;;;;;;1.92;0.90;;;;;;;26.17;47.83;101199.88;6264535;28;20499;-90
2022/06/11 11:05:10;;;;;;;1.07;0.90;;;;;;;26.11;48.04;101208.66;6265360;28;20056;-90
2022/06/11 11:08:13;;;;;;;2.00;0.95;;;;;;;25.89;48.49;101200.94;6266485;28;20183;-89
2022/06/11 11:11:16;;;;;;;2.50;1.00;;;;;;;25.53;49.59;101218.06;6265777;28;20126;-89
2022/06/11 11:14:40;;;;;;;1.50;1.00;;;;;;;25.51;48.72;101212.13;6252267;28;20045;-89
2022/06/11 11:17:53;;;;;;;1.67;0.98;;;;;;;25.97;51.31;101192.78;6250331;28;20588;-89
2022/06/11 11:20:57;;;;;;;1.63;1.38;;;;;;;26.24;46.73;101211.28;6264589;28;20048;-88
2022/06/11 11:24:32;;;;;;;1.55;1.02;;;;;;;25.60;49.28;101214.59;6259421;28;20154;-89
2022/06/11 11:27:44;;;;;;;1.40;1.10;;;;;;;24.90;50.13;101220.16;6212564;28;20056;-90
2022/06/11 11:30:47;;;;;;;2.05;1.23;;;;;;;24.57;51.30;101212.06;6189369;28;20062;-89
2022/06/11 11:34:17;;;;;;;3.05;1.35;;;;;;;24.43;51.59;101216.47;6190023;28;20054;-89
2022/06/11 11:37:19;;;;;;;1.92;1.02;;;;;;;24.40;51.89;101212.38;6200964;28;20058;-90
2022/06/11 11:40:54;;;;;;;0.98;0.95;;;;;;;24.76;51.82;101211.34;6192634;28;20042;-88
2022/06/11 11:43:57;;;;;;;1.27;1.10;;;;;;;25.00;50.36;101210.00;6190175;28;20221;-88
2022/06/11 11:47:03;;;;;;;1.95;1.20;;;;;;;24.65;50.59;101210.09;6191506;28;20292;-89
2022/06/11 11:50:12;;;;;;;1.55;1.27;;;;;;;24.54;52.46;101202.69;6174861;28;20487;-88
2022/06/11 11:53:22;;;;;;;1.20;1.10;;;;;;;24.49;52.12;101205.09;6176844;28;20058;-89
2022/06/11 11:56:34;;;;;;;4.00;1.23;;;;;;;24.71;52.55;101196.03;6190127;28;20792;-89
2022/06/11 11:59:50;;;;;;;1.63;1.25;;;;;;;25.51;49.87;101204.19;6189043;28;20057;-88
2022/06/11 12:02:56;;;;;;;2.35;1.30;;;;;;;25.62;48.46;101199.31;6202141;28;20053;-88
2022/06/11 12:05:59;;;;;;;1.10;1.00;;;;;;;25.82;48.63;101213.38;6227774;28;20041;-87
2022/06/11 12:09:04;;;;;;;1.13;1.02;;;;;;;25.44;48.59;101206.03;6232934;28;20494;-88
2022/06/11 12:12:18;;;;;;;2.15;0.90;;;;;;;24.96;49.61;101216.69;6237004;28;20045;-89
2022/06/11 12:15:24;;;;;;;2.47;1.15;;;;;;;24.89;51.65;101211.41;6236992;28;20442;-90
2022/06/11 12:18:51;;;;;;;1.70;1.10;;;;;;;24.93;50.58;101209.16;6226854;28;20046;-88
2022/06/11 12:22:19;;;;;;;1.77;1.30;;;;;;;25.12;52.75;101202.28;6229752;28;20410;-88
2022/06/11 12:25:54;;;;;;;2.17;1.10;;;;;;;25.99;52.17;101201.34;6226807;28;20033;-88
2022/06/11 12:29:02;;;;;;;4.25;1.00;;;;;;;26.47;47.19;101192.22;6229700;28;20107;-89
2022/06/11 12:32:18;;;;;;;1.15;1.00;;;;;;;26.66;48.46;101190.56;6236821;28;20044;-88
2022/06/11 12:35:41;;;;;;;2.95;1.05;;;;;;;26.28;47.06;101204.53;6225991;28;20046;-88
2022/06/11 12:39:06;;;;;;;3.88;1.30;;;;;;;25.54;48.33;101210.94;6254247;28;20522;-89
2022/06/11 12:42:47;;;;;;;2.35;1.30;;;;;;;25.05;49.47;101202.25;6219563;28;20046;-88
2022/06/11 12:45:59;;;;;;;1.52;1.02;;;;;;;25.30;49.41;101207.84;6217929;28;20132;-88
2022/06/11 12:49:32;;;;;;;2.05;1.23;;;;;;;26.60;47.78;101212.63;6230030;28;20065;-90
2022/06/11 12:53:22;;;;;;;1.35;0.88;;;;;;;27.34;44.85;101202.44;6222020;28;20057;-88
2022/06/11 12:56:44;;;;;;;1.58;1.23;;;;;;;27.29;44.73;101197.78;6196812;28;20049;-89
2022/06/11 13:00:16;;;;;;;1.92;1.10;;;;;;;27.34;43.79;101208.56;6179312;28;20217;-88
2022/06/11 13:03:49;;;;;;;2.13;1.40;;;;;;;26.93;45.21;101211.66;6209327;28;20054;-88
2022/06/11 13:07:11;;;;;;;1.38;1.10;;;;;;;26.97;45.18;101196.91;6211541;28;20068;-89
2022/06/11 13:10:26;;;;;;;2.95;1.20;;;;;;;26.56;45.35;101206.13;6201052;28;20104;-89
2022/06/11 13:13:49;;;;;;;2.55;1.10;;;;;;;26.53;47.27;101209.19;6200318;28;20058;-89
2022/06/11 13:17:09;;;;;;;2.28;0.90;;;;;;;26.81;45.90;101203.56;6196834;28;20879;-89
2022/06/11 13:20:38;;;;;;;1.75;0.90;;;;;;;26.93;44.69;101204.53;6211848;28;20057;-89
2022/06/11 13:24:08;;;;;;;1.23;0.85;;;;;;;27.11;44.48;101193.16;6211197;28;21023;-89
2022/06/11 13:27:16;;;;;;;;;;;;;;;26.78;43.44;101198.66;6231836;28;20425;-89
2022/06/11 13:30:44;;;;;;;0.90;0.85;;;;;;;26.34;44.20;101197.59;6259597;28;19924;-89
2022/06/11 13:34:22;;;;;;;1.40;1.03;;;;;;;26.52;45.63;101197.72;6256987;28;20378;-89
2022/06/11 13:37:33;;;;;;;2.05;0.80;;;;;;;26.55;45.88;101197.31;6247804;28;20060;-88
2022/06/11 13:41:14;;;;;;;2.78;1.23;;;;;;;26.70;46.31;101186.44;6239952;28;20044;-89
2022/06/11 13:44:46;;;;;;;1.30;0.90;;;;;;;26.83;44.50;101196.16;6238492;28;20053;-91
2022/06/11 13:48:02;;;;;;;1.40;1.00;;;;;;;26.70;44.72;101188.28;6226729;28;20052;-89
2022/06/11 13:51:27;;;;;;;1.42;0.90;;;;;;;26.40;44.11;101186.94;6233812;28;20146;-89
2022/06/11 13:58:18;;;;;;;;;;;;;;;27.52;41.93;101186.53;6257937;28;20312;-89
2022/06/11 14:01:42;;;;;;;2.72;1.05;;;;;;;27.22;42.68;101192.50;6256053;28;20294;-89
2022/06/11 14:04:50;;;;;;;1.45;0.90;;;;;;;27.22;43.93;101184.50;6239120;28;20037;-88
2022/06/11 14:07:54;;;;;;;1.77;0.98;;;;;;;27.49;43.78;101176.34;6225956;28;20061;-88
2022/06/11 14:11:41;;;;;;;1.98;1.00;;;;;;;27.48;43.87;101178.19;6256837;28;20105;-90
2022/06/11 14:14:43;;;;;;;2.15;0.90;;;;;;;28.13;42.30;101190.31;6208046;28;20144;-90
2022/06/11 14:17:55;;;;;;;1.40;0.70;;;;;;;28.20;41.13;101176.91;6200518;28;20578;-89
2022/06/11 14:21:00;;;;;;;1.55;1.00;;;;;;;27.93;40.94;101185.19;6211909;28;20554;-89
2022/06/11 14:24:03;;;;;;;1.15;1.00;;;;;;;27.44;40.57;101170.88;6194498;28;20069;-89
2022/06/11 14:27:39;;;;;;;2.08;0.90;;;;;;;27.25;41.90;101180.59;6174996;28;20172;-91
2022/06/11 14:30:53;;;;;;;0.98;0.60;;;;;;;26.93;42.13;101179.75;6191477;28;20804;-90
2022/06/11 14:34:12;;;;;;;1.65;0.90;;;;;;;26.90;43.56;101186.31;6193567;28;20070;-91
2022/06/11 14:37:23;;;;;;;1.50;0.90;;;;;;;27.42;41.62;101188.88;6201089;28;20205;-89
2022/06/11 14:40:25;;;;;;;0.93;0.90;;;;;;;27.74;41.66;101178.97;6176673;28;20074;-90
2022/06/11 14:46:59;;;;;;;1.02;0.75;;;;;;;27.68;41.78;101172.69;6174603;28;20468;-90
2022/06/11 14:50:24;;;;;;;1.10;0.75;;;;;;;27.56;41.73;101166.47;6202134;28;20052;-90
2022/06/11 14:53:45;;;;;;;1.35;0.80;;;;;;;28.11;43.48;101166.56;6224682;28;20184;-90
2022/06/11 14:56:53;;;;;;;1.60;0.90;;;;;;;28.53;40.09;101171.22;6242768;28;20510;-90
2022/06/11 15:00:11;;;;;;;1.55;0.80;;;;;;;28.63;39.62;101181.34;6226338;28;20049;-89